Página principal
METAR-TAF:

METAR-TAF

Aeroportos :

Trípoli, Líbia

Aeroporto Internacional de Mitiga

latitude: 32-54N, longitude: 13-17E, altura: 11 m

Observação actual do tempo

O boletim foi feito há 15 horas e 13 minutos, às 19:50 UTC
Vento 4 kt de sul
Temperatura 27°C
Humidade 48%
Pressão 1022 hPa
Visibilidade: 7000 m
Poucas nuvensa uma altura de 3000 ft

METAR: HLLM 181950Z 19004KT 7000 FEW030 27/15 Q1022

Hora: 13:03 (11:03 UTC)

Previsão

O boletim foi feito há 6 horas e 3 minutos, às 05:00 UTC
Previsão válida de 18 às 06 UTC a 19 às 06 UTC
Vento 2 kt com direcção variável
Visibilidade: 8000 m
Nuvens dispersasa uma altura de 2500 ft
Tornando-se
de 18 às 16 UTC a 18 às 18 UTC
Vento 14 kt de sudeste

TAF: HLLM 180500Z 1806/1906 VRB02KT 8000 SCT025 BECMG 1816/1818 13014KT

Observações e previsões do tempo de mais de 4000 aeroportos (mensagens METAR e TAF).

As estações disponíveis são os pontos amarelos e vermelhos sobre o mapa.

Mova o rato sobre o mapa para ver o nome da estação.

Depois clique no ponto para visualizar as observações e previsões meteorológicas.

Para alterar o mapa : clique nos botões verdes com uma cruz preta para aumentar o zoom; no botão verde com uma pitada de zoom; ou nas setas verdes para mapas adjacentes.


METAR-TAF: